createdAt,value
2018-05-23T00:00:04.130Z,94796.33
2018-05-23T00:02:32.386Z,94793.06
2018-05-23T00:05:01.421Z,94798.94
2018-05-23T00:07:29.778Z,94796.34
2018-05-23T00:09:58.811Z,94797.33
2018-05-23T00:12:27.066Z,94799.24
2018-05-23T00:14:56.104Z,94807.10
2018-05-23T00:17:24.443Z,94809.80
2018-05-23T00:19:53.467Z,94810.33
2018-05-23T00:22:21.741Z,94807.50
2018-05-23T00:24:49.986Z,94816.24
2018-05-23T00:27:18.251Z,94814.78
2018-05-23T00:29:48.011Z,94814.75
2018-05-23T00:32:17.224Z,94815.63
2018-05-23T00:34:45.500Z,94819.11
2018-05-23T00:37:13.771Z,94822.06
2018-05-23T00:39:42.051Z,94822.87
2018-05-23T00:42:10.323Z,94816.92
2018-05-23T00:44:38.603Z,94822.71
2018-05-23T00:47:07.619Z,94822.00
2018-05-23T00:49:35.883Z,94821.94
2018-05-23T00:52:04.170Z,94826.11
2018-05-23T00:54:32.435Z,94825.53
2018-05-23T00:57:01.462Z,94831.72
2018-05-23T00:59:29.718Z,94834.17
2018-05-23T01:01:58.827Z,94837.61
2018-05-23T01:04:27.895Z,94833.95
2018-05-23T01:06:56.940Z,94841.96
2018-05-23T01:09:25.204Z,94838.34
2018-05-23T01:11:53.471Z,94843.94
2018-05-23T01:14:22.495Z,94847.13
2018-05-23T01:16:50.759Z,94847.55
2018-05-23T01:19:19.784Z,94845.69
2018-05-23T01:21:48.035Z,94851.78
2018-05-23T01:24:16.304Z,94852.20
2018-05-23T01:26:45.314Z,94857.58
2018-05-23T01:29:13.585Z,94851.14
2018-05-23T01:31:42.700Z,94861.11
2018-05-23T01:34:10.960Z,94860.86
2018-05-23T01:36:41.220Z,94866.96
2018-05-23T01:39:09.483Z,94855.48
2018-05-23T01:41:37.734Z,94859.19
2018-05-23T01:44:06.782Z,94860.87
2018-05-23T01:46:35.167Z,94865.56
2018-05-23T01:49:21.439Z,94865.65
2018-05-23T01:51:49.732Z,94869.71
2018-05-23T01:54:18.003Z,94869.50
2018-05-23T01:56:46.259Z,94866.34
2018-05-23T01:59:15.290Z,94869.34
2018-05-23T02:01:43.714Z,94869.92
2018-05-23T02:04:11.976Z,94870.45
2018-05-23T02:06:40.233Z,94868.50
2018-05-23T02:09:08.498Z,94866.80
2018-05-23T02:11:37.555Z,94858.05
2018-05-23T02:14:05.827Z,94866.30
2018-05-23T02:16:34.100Z,94871.33
2018-05-23T02:19:02.366Z,94872.62
2018-05-23T02:21:30.647Z,94873.16
2018-05-23T02:23:59.207Z,94882.02
2018-05-23T02:26:27.463Z,94887.89
2018-05-23T02:28:56.489Z,94886.55
2018-05-23T02:31:24.763Z,94887.58
2018-05-23T02:33:53.787Z,94879.06
2018-05-23T02:36:22.051Z,94886.77
2018-05-23T02:38:50.310Z,94886.22
2018-05-23T02:41:19.349Z,94885.47
2018-05-23T02:43:47.608Z,94896.52
2018-05-23T02:46:19.663Z,94901.33
2018-05-23T02:48:48.697Z,94899.30
2018-05-23T02:51:16.946Z,94904.80
2018-05-23T02:53:45.202Z,94910.91
2018-05-23T02:56:14.237Z,94914.73
2018-05-23T02:58:44.667Z,94918.81
2018-05-23T03:01:12.923Z,94918.80
2018-05-23T03:03:42.038Z,94924.64
2018-05-23T03:06:10.308Z,94919.94
2018-05-23T03:08:39.337Z,94922.80
2018-05-23T03:11:07.598Z,94924.44
2018-05-23T03:13:35.874Z,94923.33
2018-05-23T03:16:05.207Z,94928.09
2018-05-23T03:18:33.480Z,94923.27
2018-05-23T03:21:02.359Z,94925.67
2018-05-23T03:23:31.455Z,94928.52
2018-05-23T03:25:59.710Z,94931.63
2018-05-23T03:28:28.749Z,94927.84
2018-05-23T03:30:57.013Z,94929.02
2018-05-23T03:33:26.031Z,94930.75
2018-05-23T03:35:54.290Z,94933.23
2018-05-23T03:38:23.324Z,94925.76
2018-05-23T03:40:51.598Z,94930.88
2018-05-23T03:43:19.869Z,94935.02
2018-05-23T03:45:48.125Z,94939.29
2018-05-23T03:48:16.399Z,94944.26
2018-05-23T03:50:45.591Z,94947.23
2018-05-23T03:53:15.052Z,94941.56
2018-05-23T03:55:43.304Z,94939.28
2018-05-23T03:58:12.336Z,94943.95
2018-05-23T04:04:11.491Z,94944.11
2018-05-23T04:06:57.782Z,94945.33
2018-05-23T04:09:26.808Z,94941.16
2018-05-23T04:11:55.130Z,94943.73
2018-05-23T04:14:24.561Z,94948.45
2018-05-23T04:16:53.675Z,94948.41
2018-05-23T04:19:21.931Z,94953.72
2018-05-23T04:21:50.947Z,94955.51
2018-05-23T04:24:19.218Z,94959.59
2018-05-23T04:26:48.237Z,94958.94
2018-05-23T04:29:16.504Z,94955.73
2018-05-23T04:31:45.539Z,94960.63
2018-05-23T04:34:13.814Z,94963.79
2018-05-23T04:36:42.063Z,94967.62
2018-05-23T04:39:11.215Z,94976.30
2018-05-23T04:41:39.451Z,94967.92
2018-05-23T04:44:07.699Z,94978.73
2018-05-23T04:46:36.624Z,94978.41
2018-05-23T04:49:04.927Z,94984.34
2018-05-23T04:51:33.198Z,94980.42
2018-05-23T04:54:01.460Z,94995.33
2018-05-23T04:56:30.486Z,94981.52
2018-05-23T04:58:58.746Z,94982.25
2018-05-23T05:01:27.020Z,94983.98
2018-05-23T05:03:56.036Z,94993.84
2018-05-23T05:06:24.300Z,95002.19
2018-05-23T05:08:52.559Z,94996.11
2018-05-23T05:11:21.597Z,94996.42
2018-05-23T05:13:49.932Z,94997.59
2018-05-23T05:16:18.887Z,95001.48
2018-05-23T05:18:47.147Z,94996.55
2018-05-23T05:21:15.411Z,94999.91
2018-05-23T05:23:44.460Z,95008.83
2018-05-23T05:26:12.795Z,95005.98
2018-05-23T05:28:41.834Z,95006.67
2018-05-23T05:31:10.080Z,95008.08
2018-05-23T05:33:38.347Z,95009.55
2018-05-23T05:36:07.380Z,95014.25
2018-05-23T05:38:35.635Z,95020.91
2018-05-23T05:41:03.910Z,95023.64
2018-05-23T05:43:32.925Z,95031.48
2018-05-23T05:46:01.195Z,95028.51
2018-05-23T05:48:29.456Z,95029.59
2018-05-23T05:50:58.488Z,95020.78
2018-05-23T05:53:26.744Z,95028.04
2018-05-23T05:55:55.768Z,95024.11
2018-05-23T05:58:24.016Z,95030.83
2018-05-23T06:00:53.048Z,95034.52
2018-05-23T06:03:21.299Z,95034.19
2018-05-23T06:05:50.330Z,95029.20
2018-05-23T06:08:18.593Z,95031.91
2018-05-23T06:10:46.842Z,95033.56
2018-05-23T06:13:15.115Z,95036.67
2018-05-23T06:15:43.388Z,95035.26
2018-05-23T06:18:11.724Z,95034.02
2018-05-23T06:20:39.988Z,95035.15
2018-05-23T06:23:09.092Z,95042.28
2018-05-23T06:25:37.381Z,95029.44
2018-05-23T06:28:05.648Z,95030.75
2018-05-23T06:30:34.675Z,95026.70
2018-05-23T06:33:03.784Z,95031.84
2018-05-23T06:35:32.055Z,95042.95
2018-05-23T06:38:00.329Z,95042.17
2018-05-23T06:40:28.581Z,95038.95
2018-05-23T06:42:57.606Z,95037.23
2018-05-23T06:45:25.881Z,95041.88
2018-05-23T06:47:54.151Z,95041.21
2018-05-23T06:50:22.407Z,95043.26
2018-05-23T06:52:51.440Z,95048.49
2018-05-23T06:55:19.699Z,95047.23
2018-05-23T06:57:48.732Z,95047.06
2018-05-23T07:00:16.995Z,95050.69
2018-05-23T07:02:45.336Z,95051.45
2018-05-23T07:05:15.594Z,95049.45
2018-05-23T07:07:43.890Z,95055.45
2018-05-23T07:10:12.154Z,95053.92
2018-05-23T07:12:41.207Z,95057.56
2018-05-23T07:15:09.539Z,95064.48
2018-05-23T07:17:37.819Z,95061.71
2018-05-23T07:20:06.834Z,95059.45
2018-05-23T07:22:35.087Z,95054.45
2018-05-23T07:25:04.115Z,95056.88
2018-05-23T07:27:32.386Z,95056.92
2018-05-23T07:30:00.646Z,95062.16
2018-05-23T07:32:29.751Z,95066.38
2018-05-23T07:34:58.778Z,95067.45
2018-05-23T07:37:27.874Z,95064.63
2018-05-23T07:39:56.131Z,95070.75
2018-05-23T07:42:25.248Z,95062.40
2018-05-23T07:44:53.503Z,95057.80
2018-05-23T07:47:22.527Z,95055.50
2018-05-23T07:49:50.796Z,95062.84
2018-05-23T07:52:19.084Z,95058.84
2018-05-23T07:54:47.335Z,95063.90
2018-05-23T07:57:16.367Z,95058.89
2018-05-23T07:59:44.613Z,95062.11
2018-05-23T08:02:13.644Z,95057.23
2018-05-23T08:04:41.920Z,95054.16
2018-05-23T08:07:10.192Z,95054.62
2018-05-23T08:09:39.491Z,95056.74
2018-05-23T08:12:07.754Z,95055.16
2018-05-23T08:14:36.789Z,95052.26
2018-05-23T08:17:05.055Z,95051.69
2018-05-23T08:19:33.327Z,95048.05
2018-05-23T08:22:02.435Z,95049.86
2018-05-23T08:24:30.751Z,95045.07
2018-05-23T08:26:59.745Z,95045.44
2018-05-23T08:29:28.095Z,95043.89
2018-05-23T08:31:56.349Z,95047.61
2018-05-23T08:34:25.389Z,95045.50
2018-05-23T08:36:53.647Z,95044.91
2018-05-23T08:39:22.674Z,95049.01
2018-05-23T08:41:51.131Z,95054.80
2018-05-23T08:44:19.406Z,95057.00
2018-05-23T08:46:48.424Z,95049.03
2018-05-23T08:49:16.691Z,95050.49
2018-05-23T08:51:45.716Z,95044.55
2018-05-23T08:54:13.989Z,95050.75
2018-05-23T08:56:42.251Z,95053.92
2018-05-23T08:59:11.356Z,95052.88
2018-05-23T09:01:39.609Z,95049.89
2018-05-23T09:04:08.645Z,95051.22
2018-05-23T09:06:36.895Z,95049.55
2018-05-23T09:09:06.749Z,95045.02
2018-05-23T09:11:35.007Z,95038.20
2018-05-23T09:14:03.278Z,95043.72
2018-05-23T09:16:32.313Z,95045.52
2018-05-23T09:19:03.057Z,95037.52
2018-05-23T09:21:31.433Z,95042.37
2018-05-23T09:23:59.700Z,95046.25
2018-05-23T09:26:27.951Z,95046.40
2018-05-23T09:28:56.979Z,95051.58
2018-05-23T09:31:25.235Z,95055.34
2018-05-23T09:33:54.267Z,95054.64
2018-05-23T09:36:22.528Z,95053.42
2018-05-23T09:38:50.787Z,95050.64
2018-05-23T09:41:19.799Z,95049.88
2018-05-23T09:43:48.087Z,95054.22
2018-05-23T09:46:16.356Z,95053.33
2018-05-23T09:48:45.394Z,95059.86
2018-05-23T09:51:13.656Z,95061.78
2018-05-23T09:53:41.924Z,95054.53
2018-05-23T09:56:10.202Z,95057.77
2018-05-23T09:58:38.479Z,95056.00
2018-05-23T10:01:07.504Z,95054.56
2018-05-23T10:03:35.758Z,95051.56
2018-05-23T10:06:04.046Z,95048.70
2018-05-23T10:08:32.319Z,95052.45
2018-05-23T10:11:01.332Z,95049.70
2018-05-23T10:13:29.632Z,95041.70
2018-05-23T10:15:57.883Z,95036.48
2018-05-23T10:18:26.134Z,95039.98
2018-05-23T10:20:55.171Z,95037.14
2018-05-23T10:23:23.414Z,95031.22
2018-05-23T10:25:52.468Z,95036.41
2018-05-23T10:28:20.724Z,95036.41
2018-05-23T10:30:48.998Z,95034.66
2018-05-23T10:33:18.132Z,95031.73
2018-05-23T10:35:46.389Z,95033.75
2018-05-23T10:38:14.645Z,95032.35
2018-05-23T10:40:43.672Z,95032.33
2018-05-23T10:43:11.936Z,95028.11
2018-05-23T10:45:40.963Z,95025.71
2018-05-23T10:48:09.228Z,95026.70
2018-05-23T10:50:37.487Z,95024.52
2018-05-23T10:53:06.603Z,95030.46
2018-05-23T10:55:34.872Z,95033.03
2018-05-23T10:58:03.891Z,95022.87
2018-05-23T11:00:33.819Z,95022.48
2018-05-23T11:03:02.131Z,95024.43
2018-05-23T11:05:30.365Z,95029.50
2018-05-23T11:07:58.628Z,95031.89
2018-05-23T11:10:27.739Z,95027.48
2018-05-23T11:12:55.995Z,95035.77
2018-05-23T11:15:25.029Z,95027.16
2018-05-23T11:17:53.278Z,95027.27
2018-05-23T11:20:22.303Z,95030.53
2018-05-23T11:22:51.528Z,95018.67
2018-05-23T11:25:19.923Z,95021.62
2018-05-23T11:27:48.189Z,95010.03
2018-05-23T11:30:16.442Z,95017.41
2018-05-23T11:32:44.694Z,95015.38
2018-05-23T11:35:13.737Z,95015.91
2018-05-23T11:37:41.987Z,95010.95
2018-05-23T11:40:11.139Z,95009.64
2018-05-23T11:42:39.398Z,95000.81
2018-05-23T11:45:07.673Z,94995.63
2018-05-23T11:47:35.939Z,95000.37
2018-05-23T11:50:04.239Z,95000.72
2018-05-23T11:52:32.501Z,94994.93
2018-05-23T11:55:01.532Z,94994.57
2018-05-23T11:57:29.788Z,94992.11
2018-05-23T11:59:58.055Z,94986.30
2018-05-23T12:02:27.084Z,94989.95
2018-05-23T12:04:55.347Z,94987.21
2018-05-23T12:07:23.608Z,94989.33
2018-05-23T12:09:52.639Z,94983.27
2018-05-23T12:12:20.895Z,94991.22
2018-05-23T12:14:49.936Z,94985.78
2018-05-23T12:17:18.191Z,94983.44
2018-05-23T12:19:46.607Z,94977.48
2018-05-23T12:22:14.739Z,94974.48
2018-05-23T12:24:43.007Z,94979.89
2018-05-23T12:27:12.033Z,94967.20
2018-05-23T12:29:40.296Z,94968.38
2018-05-23T12:32:08.546Z,94965.09
2018-05-23T12:34:37.571Z,94966.55
2018-05-23T12:37:06.496Z,94966.67
2018-05-23T12:39:34.761Z,94963.72
2018-05-23T12:42:03.030Z,94966.06
2018-05-23T12:44:32.046Z,94969.47
2018-05-23T12:47:00.321Z,94958.70
2018-05-23T12:49:28.566Z,94957.30
2018-05-23T12:51:57.610Z,94957.25
2018-05-23T12:54:25.864Z,94966.02
2018-05-23T12:56:55.205Z,94959.98
2018-05-23T12:59:23.456Z,94953.53
2018-05-23T13:01:51.745Z,94952.45
2018-05-23T13:04:20.015Z,94952.84
2018-05-23T13:06:48.283Z,94954.92
2018-05-23T13:09:18.963Z,94956.45
2018-05-23T13:11:47.231Z,94954.27
2018-05-23T13:14:15.490Z,94951.17
2018-05-23T13:16:44.511Z,94952.67
2018-05-23T13:19:12.766Z,94953.16
2018-05-23T13:21:41.038Z,94950.79
2018-05-23T13:24:10.067Z,94953.19
2018-05-23T13:26:38.341Z,94953.77
2018-05-23T13:29:06.605Z,94945.02
2018-05-23T13:31:35.632Z,94950.03
2018-05-23T13:34:03.886Z,94945.84
2018-05-23T13:36:32.182Z,94941.98
2018-05-23T13:39:00.478Z,94943.58
2018-05-23T13:41:30.698Z,94940.87
2018-05-23T13:43:58.959Z,94939.06
2018-05-23T13:46:27.971Z,94931.81
2018-05-23T13:48:56.226Z,94931.16
2018-05-23T13:51:25.271Z,94922.91
2018-05-23T13:53:53.526Z,94924.05
2018-05-23T13:56:21.792Z,94930.33
2018-05-23T13:58:50.047Z,94927.20
2018-05-23T14:01:19.088Z,94925.02
2018-05-23T14:03:47.339Z,94921.07
2018-05-23T14:06:16.376Z,94924.11
2018-05-23T14:08:44.739Z,94925.91
2018-05-23T14:11:13.011Z,94927.55
2018-05-23T14:13:41.304Z,94922.03
2018-05-23T14:16:09.566Z,94927.08
2018-05-23T14:18:38.584Z,94920.13
2018-05-23T14:21:06.853Z,94912.92
2018-05-23T14:23:35.109Z,94920.32
2018-05-23T14:26:04.136Z,94911.05
2018-05-23T14:28:32.426Z,94910.17
2018-05-23T14:31:00.666Z,94908.88
2018-05-23T14:33:29.701Z,94908.09
2018-05-23T14:35:58.655Z,94910.34
2018-05-23T14:38:27.691Z,94910.46
2018-05-23T14:40:55.944Z,94906.70
2018-05-23T14:43:25.044Z,94918.59
2018-05-23T14:45:53.334Z,94914.33
2018-05-23T14:48:22.451Z,94917.22
2018-05-23T14:50:50.701Z,94915.58
2018-05-23T14:53:19.735Z,94920.77
2018-05-23T14:55:47.982Z,94923.14
2018-05-23T14:58:17.328Z,94926.61
2018-05-23T15:00:45.575Z,94925.46
2018-05-23T15:03:14.687Z,94930.13
2018-05-23T15:05:42.955Z,94937.50
2018-05-23T15:08:11.959Z,94944.70
2018-05-23T15:10:40.230Z,94944.95
2018-05-23T15:13:09.319Z,94948.52
2018-05-23T15:15:39.080Z,94939.30
2018-05-23T15:18:07.454Z,94942.36
2018-05-23T15:20:35.714Z,94946.69
2018-05-23T15:23:03.984Z,94946.88
2018-05-23T15:25:33.015Z,94954.54
2018-05-23T15:28:01.275Z,94953.25
2018-05-23T15:30:29.581Z,94961.89
2018-05-23T15:32:57.841Z,94956.47
2018-05-23T15:35:26.171Z,94952.81
2018-05-23T15:37:54.431Z,94966.95
2018-05-23T15:40:22.681Z,94964.52
2018-05-23T15:42:51.707Z,94972.70
2018-05-23T15:45:19.976Z,94963.99
2018-05-23T15:47:48.232Z,94966.02
2018-05-23T15:50:17.259Z,94967.41
2018-05-23T15:52:45.518Z,94968.47
2018-05-23T15:55:13.770Z,94972.10
2018-05-23T15:57:42.812Z,94973.92
2018-05-23T16:00:11.668Z,94975.31
2018-05-23T16:02:40.700Z,94974.08
2018-05-23T16:05:08.963Z,94969.00
2018-05-23T16:07:38.069Z,94969.41
2018-05-23T16:10:06.361Z,94971.81
2018-05-23T16:12:34.603Z,94973.38
2018-05-23T16:15:03.656Z,94967.36
2018-05-23T16:17:31.924Z,94968.79
2018-05-23T16:20:00.198Z,94980.33
2018-05-23T16:22:28.459Z,94975.89
2018-05-23T16:24:57.584Z,94983.78
2018-05-23T16:27:25.840Z,94984.36
2018-05-23T16:29:55.397Z,94985.64
2018-05-23T16:32:24.772Z,94987.08
2018-05-23T16:34:53.045Z,94997.27
2018-05-23T16:37:22.088Z,94998.78
2018-05-23T16:39:50.340Z,94997.27
2018-05-23T16:42:18.606Z,95002.98
2018-05-23T16:44:46.883Z,95000.97
2018-05-23T16:47:15.999Z,95007.29
2018-05-23T16:49:44.271Z,95007.89
2018-05-23T16:52:12.601Z,95008.09
2018-05-23T16:54:41.650Z,95004.72
2018-05-23T16:57:09.902Z,95005.61
2018-05-23T16:59:39.075Z,95009.35
2018-05-23T17:02:07.332Z,95004.62
2018-05-23T17:04:36.098Z,95015.53
2018-05-23T17:07:05.135Z,95016.91
2018-05-23T17:09:33.415Z,95009.14
2018-05-23T17:12:01.672Z,95010.73
2018-05-23T17:14:30.043Z,95015.67
2018-05-23T17:16:58.333Z,95020.84
2018-05-23T17:19:26.617Z,95017.31
2018-05-23T17:21:54.885Z,95030.55
2018-05-23T17:24:23.157Z,95044.05
2018-05-23T17:26:52.189Z,95046.06
2018-05-23T17:29:20.467Z,95044.43
2018-05-23T17:31:48.739Z,95043.89
2018-05-23T17:34:16.994Z,95053.42
2018-05-23T17:36:46.028Z,95051.69
2018-05-23T17:39:14.283Z,95048.49
2018-05-23T17:41:43.306Z,95047.73
2018-05-23T17:44:11.987Z,95053.92
2018-05-23T17:46:41.583Z,95053.48
2018-05-23T17:49:09.835Z,95053.28
2018-05-23T17:51:38.871Z,95052.64
2018-05-23T17:54:07.141Z,95051.31
2018-05-23T17:56:36.350Z,95049.33
2018-05-23T17:59:04.599Z,95048.02
2018-05-23T18:01:33.639Z,95048.63
2018-05-23T18:04:01.891Z,95046.88
2018-05-23T18:06:30.977Z,95056.95
2018-05-23T18:09:01.667Z,95058.57
2018-05-23T18:11:29.914Z,95059.14
2018-05-23T18:14:00.272Z,95063.02
2018-05-23T18:16:28.544Z,95061.39
2018-05-23T18:18:56.807Z,95067.83
2018-05-23T18:21:25.078Z,95075.86
2018-05-23T18:23:54.100Z,95071.48
2018-05-23T18:26:22.368Z,95079.84
2018-05-23T18:28:50.625Z,95086.20
2018-05-23T18:31:19.663Z,95087.34
2018-05-23T18:33:47.914Z,95100.39
2018-05-23T18:36:16.931Z,95108.86
2018-05-23T18:38:45.473Z,95100.72
2018-05-23T18:41:14.964Z,95090.95
2018-05-23T18:43:43.224Z,95102.85
2018-05-23T18:46:11.488Z,95103.97
2018-05-23T18:48:39.748Z,95110.24
2018-05-23T18:51:08.772Z,95103.83
2018-05-23T18:53:37.031Z,95113.92
2018-05-23T18:56:06.058Z,95108.31
2018-05-23T18:58:34.318Z,95110.47
2018-05-23T19:01:02.571Z,95104.05
2018-05-23T19:03:31.605Z,95104.28
2018-05-23T19:05:59.887Z,95096.34
2018-05-23T19:08:28.139Z,95079.02
2018-05-23T19:10:57.166Z,95090.33
2018-05-23T19:13:25.427Z,95089.70
2018-05-23T19:15:54.470Z,95087.58
2018-05-23T19:18:22.730Z,95086.26
2018-05-23T19:20:50.990Z,95083.72
2018-05-23T19:23:20.820Z,95082.28
2018-05-23T19:25:49.083Z,95081.28
2018-05-23T19:28:18.102Z,95077.08
2018-05-23T19:30:46.380Z,95073.53
2018-05-23T19:33:14.652Z,95065.48
2018-05-23T19:35:42.899Z,95068.13
2018-05-23T19:38:11.927Z,95071.39
2018-05-23T19:40:40.204Z,95065.38
2018-05-23T19:43:08.473Z,95064.64
2018-05-23T19:45:37.737Z,95062.77
2018-05-23T19:48:06.078Z,95057.84
2018-05-23T19:50:34.330Z,95060.64
2018-05-23T19:53:03.452Z,95057.94
2018-05-23T19:55:31.953Z,95060.26
2018-05-23T19:58:00.214Z,95055.92
2018-05-23T20:00:28.475Z,95054.38
2018-05-23T20:02:57.492Z,95060.80
2018-05-23T20:05:26.526Z,95043.14
2018-05-23T20:07:54.792Z,95061.70
2018-05-23T20:10:23.051Z,95065.94
2018-05-23T20:12:52.084Z,95063.20
2018-05-23T20:15:20.334Z,95068.70
2018-05-23T20:17:48.590Z,95070.31
2018-05-23T20:20:17.621Z,95072.58
2018-05-23T20:22:45.886Z,95077.65
2018-05-23T20:25:14.915Z,95076.83
2018-05-23T20:27:43.502Z,95076.45
2018-05-23T20:30:11.771Z,95078.66
2018-05-23T20:32:40.032Z,95083.50
2018-05-23T20:35:09.049Z,95079.54
2018-05-23T20:37:37.315Z,95080.45
2018-05-23T20:40:05.575Z,95082.11
2018-05-23T20:42:34.699Z,95084.11
2018-05-23T20:45:02.972Z,95080.66
2018-05-23T20:47:32.001Z,95078.08
2018-05-23T20:50:00.251Z,95074.34
2018-05-23T20:52:29.279Z,95068.83
2018-05-23T20:54:57.535Z,95074.05
2018-05-23T20:57:26.569Z,95075.20
2018-05-23T20:59:55.136Z,95085.27
2018-05-23T21:02:23.401Z,95080.05
2018-05-23T21:04:51.658Z,95082.11
2018-05-23T21:07:20.696Z,95084.48
2018-05-23T21:09:49.030Z,95082.36
2018-05-23T21:12:18.072Z,95094.86
2018-05-23T21:14:46.354Z,95086.28
2018-05-23T21:17:14.636Z,95090.67
2018-05-23T21:19:42.887Z,95101.97
2018-05-23T21:22:11.923Z,95099.92
2018-05-23T21:24:40.192Z,95097.37
2018-05-23T21:27:08.458Z,95097.75
2018-05-23T21:29:36.723Z,95092.79
2018-05-23T21:32:06.992Z,95090.53
2018-05-23T21:34:35.310Z,95094.16
2018-05-23T21:37:03.515Z,95103.88
2018-05-23T21:39:32.548Z,95104.72
2018-05-23T21:42:00.821Z,95112.20
2018-05-23T21:44:29.081Z,95122.09
2018-05-23T21:46:57.356Z,95126.14
2018-05-23T21:49:26.471Z,95125.69
2018-05-23T21:51:54.730Z,95117.66
2018-05-23T21:54:23.763Z,95115.28
2018-05-23T21:56:52.035Z,95118.21
2018-05-23T21:59:20.328Z,95114.34
2018-05-23T22:01:48.592Z,95111.99
2018-05-23T22:04:16.862Z,95114.66
2018-05-23T22:06:45.883Z,95128.06
2018-05-23T22:09:14.138Z,95124.78
2018-05-23T22:11:42.403Z,95130.02
2018-05-23T22:14:11.436Z,95126.36
2018-05-23T22:16:39.694Z,95125.33
2018-05-23T22:19:08.728Z,95126.73
2018-05-23T22:21:36.974Z,95133.29
2018-05-23T22:24:06.013Z,95135.49
2018-05-23T22:26:34.372Z,95130.85
2018-05-23T22:29:02.638Z,95131.91
2018-05-23T22:31:31.664Z,95126.52
2018-05-23T22:33:59.908Z,95129.80
2018-05-23T22:36:30.179Z,95133.68
2018-05-23T22:38:58.447Z,95131.79
2018-05-23T22:41:26.702Z,95135.54
2018-05-23T22:43:55.744Z,95131.63
2018-05-23T22:46:23.996Z,95136.70
2018-05-23T22:48:52.272Z,95136.78
2018-05-23T22:51:20.522Z,95133.48
2018-05-23T22:53:49.546Z,95136.07
2018-05-23T22:56:17.799Z,95136.75
2018-05-23T22:58:47.580Z,95144.84
2018-05-23T23:01:15.931Z,95148.48
2018-05-23T23:03:44.200Z,95148.06
2018-05-23T23:06:13.226Z,95148.11
2018-05-23T23:08:43.058Z,95143.66
2018-05-23T23:11:11.311Z,95148.28
2018-05-23T23:13:39.588Z,95150.31
2018-05-23T23:16:08.426Z,95148.55
2018-05-23T23:18:36.755Z,95141.45
2018-05-23T23:21:05.025Z,95142.50
2018-05-23T23:23:34.053Z,95140.78
2018-05-23T23:26:02.323Z,95135.30
2018-05-23T23:28:30.581Z,95140.02
2018-05-23T23:30:59.610Z,95140.65
2018-05-23T23:33:27.881Z,95138.52
2018-05-23T23:35:56.151Z,95126.57
2018-05-23T23:38:24.422Z,95131.98
2018-05-23T23:40:53.547Z,95131.92
2018-05-23T23:43:21.810Z,95129.88
2018-05-23T23:45:50.081Z,95136.64
2018-05-23T23:48:19.927Z,95131.20
2018-05-23T23:50:48.186Z,95133.61
2018-05-23T23:53:17.215Z,95131.41
2018-05-23T23:55:45.495Z,95129.42
2018-05-23T23:58:13.752Z,95128.79
